sensor_id;sensor_type;location;lat;lon;timestamp;temperature;humidity
11055;DHT22;5580;50.106;8.702;2022-11-20T00:02:19;4.10;99.90
11055;DHT22;5580;50.106;8.702;2022-11-20T00:04:45;4.20;99.90
11055;DHT22;5580;50.106;8.702;2022-11-20T00:07:10;4.30;99.90
11055;DHT22;5580;50.106;8.702;2022-11-20T00:09:36;4.30;99.90
11055;DHT22;5580;50.106;8.702;2022-11-20T00:12:01;4.30;99.90
11055;DHT22;5580;50.106;8.702;2022-11-20T00:14:27;4.30;99.90
11055;DHT22;5580;50.106;8.702;2022-11-20T00:16:52;4.20;99.90
11055;DHT22;5580;50.106;8.702;2022-11-20T00:19:18;4.20;99.90
11055;DHT22;5580;50.106;8.702;2022-11-20T00:21:43;4.20;99.90
11055;DHT22;5580;50.106;8.702;2022-11-20T00:24:09;4.20;99.90
11055;DHT22;5580;50.106;8.702;2022-11-20T00:26:36;4.20;99.90
11055;DHT22;5580;50.106;8.702;2022-11-20T00:29:02;4.20;99.90
11055;DHT22;5580;50.106;8.702;2022-11-20T00:31:28;4.10;99.90
11055;DHT22;5580;50.106;8.702;2022-11-20T00:33:54;4.10;99.90
11055;DHT22;5580;50.106;8.702;2022-11-20T00:36:25;4.10;99.90
11055;DHT22;5580;50.106;8.702;2022-11-20T00:38:55;4.10;99.90
11055;DHT22;5580;50.106;8.702;2022-11-20T00:41:22;4.10;99.90
11055;DHT22;5580;50.106;8.702;2022-11-20T00:43:48;4.10;99.90
11055;DHT22;5580;50.106;8.702;2022-11-20T00:46:18;4.10;99.90
11055;DHT22;5580;50.106;8.702;2022-11-20T00:48:45;4.10;99.90
11055;DHT22;5580;50.106;8.702;2022-11-20T00:51:13;4.10;99.90
11055;DHT22;5580;50.106;8.702;2022-11-20T00:53:38;4.10;99.90
11055;DHT22;5580;50.106;8.702;2022-11-20T00:56:06;4.10;99.90
11055;DHT22;5580;50.106;8.702;2022-11-20T00:58:36;4.10;99.90
11055;DHT22;5580;50.106;8.702;2022-11-20T01:03:32;4.10;99.90
11055;DHT22;5580;50.106;8.702;2022-11-20T01:06:02;4.10;99.90
11055;DHT22;5580;50.106;8.702;2022-11-20T01:08:32;4.20;99.90
11055;DHT22;5580;50.106;8.702;2022-11-20T01:11:07;4.20;99.90
11055;DHT22;5580;50.106;8.702;2022-11-20T01:13:34;4.20;99.90
11055;DHT22;5580;50.106;8.702;2022-11-20T01:18:35;4.30;99.90
11055;DHT22;5580;50.106;8.702;2022-11-20T01:21:07;4.30;99.90
11055;DHT22;5580;50.106;8.702;2022-11-20T01:23:35;4.30;99.90
11055;DHT22;5580;50.106;8.702;2022-11-20T01:26:02;4.20;99.90
11055;DHT22;5580;50.106;8.702;2022-11-20T01:28:29;4.20;99.90
11055;DHT22;5580;50.106;8.702;2022-11-20T01:30:54;4.10;99.90
11055;DHT22;5580;50.106;8.702;2022-11-20T01:33:20;4.10;99.90
11055;DHT22;5580;50.106;8.702;2022-11-20T01:35:46;4.00;99.90
11055;DHT22;5580;50.106;8.702;2022-11-20T01:38:11;4.00;99.90
11055;DHT22;5580;50.106;8.702;2022-11-20T01:40:37;3.90;99.90
11055;DHT22;5580;50.106;8.702;2022-11-20T01:43:19;3.90;99.90
11055;DHT22;5580;50.106;8.702;2022-11-20T01:46:14;3.80;99.90
11055;DHT22;5580;50.106;8.702;2022-11-20T01:51:45;3.90;99.90
11055;DHT22;5580;50.106;8.702;2022-11-20T01:54:19;3.90;99.90
11055;DHT22;5580;50.106;8.702;2022-11-20T01:56:46;3.90;99.90
11055;DHT22;5580;50.106;8.702;2022-11-20T01:59:16;4.00;99.90
11055;DHT22;5580;50.106;8.702;2022-11-20T02:01:43;4.10;99.90
11055;DHT22;5580;50.106;8.702;2022-11-20T02:04:09;4.10;99.90
11055;DHT22;5580;50.106;8.702;2022-11-20T02:06:40;4.10;99.90
11055;DHT22;5580;50.106;8.702;2022-11-20T02:09:06;4.10;99.90
11055;DHT22;5580;50.106;8.702;2022-11-20T02:11:31;4.10;99.90
11055;DHT22;5580;50.106;8.702;2022-11-20T02:13:58;4.20;99.90
11055;DHT22;5580;50.106;8.702;2022-11-20T02:16:27;4.20;99.90
11055;DHT22;5580;50.106;8.702;2022-11-20T02:18:56;4.10;99.90
11055;DHT22;5580;50.106;8.702;2022-11-20T02:21:30;4.00;99.90
11055;DHT22;5580;50.106;8.702;2022-11-20T02:32:25;4.10;99.90
11055;DHT22;5580;50.106;8.702;2022-11-20T02:34:51;4.10;99.90
11055;DHT22;5580;50.106;8.702;2022-11-20T02:37:18;4.10;99.90
11055;DHT22;5580;50.106;8.702;2022-11-20T02:39:46;4.10;99.90
11055;DHT22;5580;50.106;8.702;2022-11-20T02:42:12;4.10;99.90
11055;DHT22;5580;50.106;8.702;2022-11-20T02:44:38;4.00;99.90
11055;DHT22;5580;50.106;8.702;2022-11-20T02:47:04;4.10;99.90
11055;DHT22;5580;50.106;8.702;2022-11-20T02:49:29;4.10;99.90
11055;DHT22;5580;50.106;8.702;2022-11-20T02:51:55;4.10;99.90
11055;DHT22;5580;50.106;8.702;2022-11-20T02:54:21;4.10;99.90
11055;DHT22;5580;50.106;8.702;2022-11-20T02:56:46;4.10;99.90
11055;DHT22;5580;50.106;8.702;2022-11-20T02:59:12;4.00;99.90
11055;DHT22;5580;50.106;8.702;2022-11-20T03:01:37;4.00;99.90
11055;DHT22;5580;50.106;8.702;2022-11-20T03:04:04;4.00;99.90
11055;DHT22;5580;50.106;8.702;2022-11-20T03:06:30;4.00;99.90
11055;DHT22;5580;50.106;8.702;2022-11-20T03:08:55;4.00;99.90
11055;DHT22;5580;50.106;8.702;2022-11-20T03:11:21;4.10;99.90
11055;DHT22;5580;50.106;8.702;2022-11-20T03:13:46;4.10;99.90
11055;DHT22;5580;50.106;8.702;2022-11-20T03:16:17;4.10;99.90
11055;DHT22;5580;50.106;8.702;2022-11-20T03:18:43;4.10;99.90
11055;DHT22;5580;50.106;8.702;2022-11-20T03:21:10;4.10;99.90
11055;DHT22;5580;50.106;8.702;2022-11-20T03:23:37;4.10;99.90
11055;DHT22;5580;50.106;8.702;2022-11-20T03:26:16;4.10;99.90
11055;DHT22;5580;50.106;8.702;2022-11-20T03:28:47;4.00;99.90
11055;DHT22;5580;50.106;8.702;2022-11-20T03:31:15;4.00;99.90
11055;DHT22;5580;50.106;8.702;2022-11-20T03:33:41;4.10;99.90
11055;DHT22;5580;50.106;8.702;2022-11-20T03:36:10;4.10;99.90
11055;DHT22;5580;50.106;8.702;2022-11-20T03:38:36;4.00;99.90
11055;DHT22;5580;50.106;8.702;2022-11-20T03:41:04;4.00;99.90
11055;DHT22;5580;50.106;8.702;2022-11-20T03:43:31;4.00;99.90
11055;DHT22;5580;50.106;8.702;2022-11-20T03:45:57;4.00;99.90
11055;DHT22;5580;50.106;8.702;2022-11-20T03:48:23;3.90;99.90
11055;DHT22;5580;50.106;8.702;2022-11-20T03:50:48;3.90;99.90
11055;DHT22;5580;50.106;8.702;2022-11-20T03:53:15;3.90;99.90
11055;DHT22;5580;50.106;8.702;2022-11-20T03:55:40;4.00;99.90
11055;DHT22;5580;50.106;8.702;2022-11-20T03:58:06;4.00;99.90
11055;DHT22;5580;50.106;8.702;2022-11-20T04:00:31;4.00;99.90
11055;DHT22;5580;50.106;8.702;2022-11-20T04:03:01;4.10;99.90
11055;DHT22;5580;50.106;8.702;2022-11-20T04:05:26;4.10;99.90
11055;DHT22;5580;50.106;8.702;2022-11-20T04:07:52;4.00;99.90
11055;DHT22;5580;50.106;8.702;2022-11-20T04:10:18;3.90;99.90
11055;DHT22;5580;50.106;8.702;2022-11-20T04:12:43;3.80;99.90
11055;DHT22;5580;50.106;8.702;2022-11-20T04:15:09;3.90;99.90
11055;DHT22;5580;50.106;8.702;2022-11-20T04:17:35;3.90;99.90
11055;DHT22;5580;50.106;8.702;2022-11-20T04:20:01;4.00;99.90
11055;DHT22;5580;50.106;8.702;2022-11-20T04:22:27;4.10;99.90
11055;DHT22;5580;50.106;8.702;2022-11-20T04:24:52;4.10;99.90
11055;DHT22;5580;50.106;8.702;2022-11-20T04:27:18;4.10;99.90
11055;DHT22;5580;50.106;8.702;2022-11-20T04:29:44;4.10;99.90
11055;DHT22;5580;50.106;8.702;2022-11-20T04:32:09;4.10;99.90
11055;DHT22;5580;50.106;8.702;2022-11-20T04:34:35;4.00;99.90
11055;DHT22;5580;50.106;8.702;2022-11-20T04:37:00;3.90;99.90
11055;DHT22;5580;50.106;8.702;2022-11-20T04:39:26;3.70;99.90
11055;DHT22;5580;50.106;8.702;2022-11-20T04:41:52;3.70;99.90
11055;DHT22;5580;50.106;8.702;2022-11-20T04:44:37;3.80;99.90
11055;DHT22;5580;50.106;8.702;2022-11-20T04:47:03;3.80;99.90
11055;DHT22;5580;50.106;8.702;2022-11-20T04:49:29;3.90;99.90
11055;DHT22;5580;50.106;8.702;2022-11-20T04:51:54;3.90;99.90
11055;DHT22;5580;50.106;8.702;2022-11-20T04:54:20;3.90;99.90
11055;DHT22;5580;50.106;8.702;2022-11-20T04:56:47;3.90;99.90
11055;DHT22;5580;50.106;8.702;2022-11-20T04:59:13;3.90;99.90
11055;DHT22;5580;50.106;8.702;2022-11-20T05:01:39;3.90;99.90
11055;DHT22;5580;50.106;8.702;2022-11-20T05:04:04;3.90;99.90
11055;DHT22;5580;50.106;8.702;2022-11-20T05:06:31;3.90;99.90
11055;DHT22;5580;50.106;8.702;2022-11-20T05:08:57;3.90;99.90
11055;DHT22;5580;50.106;8.702;2022-11-20T05:11:23;3.90;99.90
11055;DHT22;5580;50.106;8.702;2022-11-20T05:13:50;3.90;99.90
11055;DHT22;5580;50.106;8.702;2022-11-20T05:16:18;3.90;99.90
11055;DHT22;5580;50.106;8.702;2022-11-20T05:18:45;3.90;99.90
11055;DHT22;5580;50.106;8.702;2022-11-20T05:21:12;3.90;99.90
11055;DHT22;5580;50.106;8.702;2022-11-20T05:23:38;3.90;99.90
11055;DHT22;5580;50.106;8.702;2022-11-20T05:26:05;4.00;99.90
11055;DHT22;5580;50.106;8.702;2022-11-20T05:28:32;4.00;99.90
11055;DHT22;5580;50.106;8.702;2022-11-20T05:31:09;4.10;99.90
11055;DHT22;5580;50.106;8.702;2022-11-20T05:33:36;4.10;99.90
11055;DHT22;5580;50.106;8.702;2022-11-20T05:36:03;4.00;99.90
11055;DHT22;5580;50.106;8.702;2022-11-20T05:38:29;3.90;99.90
11055;DHT22;5580;50.106;8.702;2022-11-20T05:40:54;3.90;99.90
11055;DHT22;5580;50.106;8.702;2022-11-20T05:43:20;4.00;99.90
11055;DHT22;5580;50.106;8.702;2022-11-20T05:45:55;4.00;99.90
11055;DHT22;5580;50.106;8.702;2022-11-20T05:48:20;4.00;99.90
11055;DHT22;5580;50.106;8.702;2022-11-20T05:50:47;3.90;99.90
11055;DHT22;5580;50.106;8.702;2022-11-20T05:53:12;4.00;99.90
11055;DHT22;5580;50.106;8.702;2022-11-20T05:55:38;4.00;99.90
11055;DHT22;5580;50.106;8.702;2022-11-20T05:58:04;4.00;99.90
11055;DHT22;5580;50.106;8.702;2022-11-20T06:00:29;4.10;99.90
11055;DHT22;5580;50.106;8.702;2022-11-20T06:02:55;4.00;99.90
11055;DHT22;5580;50.106;8.702;2022-11-20T06:05:20;3.90;99.90
11055;DHT22;5580;50.106;8.702;2022-11-20T06:07:46;3.90;99.90
11055;DHT22;5580;50.106;8.702;2022-11-20T06:10:11;3.90;99.90
11055;DHT22;5580;50.106;8.702;2022-11-20T06:12:37;3.90;99.90
11055;DHT22;5580;50.106;8.702;2022-11-20T06:15:04;4.00;99.90
11055;DHT22;5580;50.106;8.702;2022-11-20T06:17:29;3.90;99.90
11055;DHT22;5580;50.106;8.702;2022-11-20T06:19:55;3.80;99.90
11055;DHT22;5580;50.106;8.702;2022-11-20T06:22:20;3.90;99.90
11055;DHT22;5580;50.106;8.702;2022-11-20T06:24:46;3.90;99.90
11055;DHT22;5580;50.106;8.702;2022-11-20T06:27:12;4.00;99.90
11055;DHT22;5580;50.106;8.702;2022-11-20T06:29:37;4.00;99.90
11055;DHT22;5580;50.106;8.702;2022-11-20T06:32:03;4.10;99.90
11055;DHT22;5580;50.106;8.702;2022-11-20T06:34:28;4.00;99.90
11055;DHT22;5580;50.106;8.702;2022-11-20T06:36:54;4.10;99.90
11055;DHT22;5580;50.106;8.702;2022-11-20T06:39:20;4.10;99.90
11055;DHT22;5580;50.106;8.702;2022-11-20T06:41:45;4.10;99.90
11055;DHT22;5580;50.106;8.702;2022-11-20T06:44:11;4.00;99.90
11055;DHT22;5580;50.106;8.702;2022-11-20T06:46:36;3.90;99.90
11055;DHT22;5580;50.106;8.702;2022-11-20T06:49:02;3.90;99.90
11055;DHT22;5580;50.106;8.702;2022-11-20T06:51:28;3.80;99.90
11055;DHT22;5580;50.106;8.702;2022-11-20T06:53:53;3.80;99.90
11055;DHT22;5580;50.106;8.702;2022-11-20T06:56:19;3.70;99.90
11055;DHT22;5580;50.106;8.702;2022-11-20T06:58:45;3.70;99.90
11055;DHT22;5580;50.106;8.702;2022-11-20T07:01:12;3.60;99.90
11055;DHT22;5580;50.106;8.702;2022-11-20T07:03:39;3.70;99.90
11055;DHT22;5580;50.106;8.702;2022-11-20T07:06:05;3.70;99.90
11055;DHT22;5580;50.106;8.702;2022-11-20T07:08:32;3.60;99.90
11055;DHT22;5580;50.106;8.702;2022-11-20T07:10:59;3.50;99.90
11055;DHT22;5580;50.106;8.702;2022-11-20T07:13:26;3.40;99.90
11055;DHT22;5580;50.106;8.702;2022-11-20T07:15:51;3.40;99.90
11055;DHT22;5580;50.106;8.702;2022-11-20T07:18:17;3.30;99.90
11055;DHT22;5580;50.106;8.702;2022-11-20T07:20:42;3.30;99.90
11055;DHT22;5580;50.106;8.702;2022-11-20T07:23:08;3.40;99.90
11055;DHT22;5580;50.106;8.702;2022-11-20T07:25:33;3.40;99.90
11055;DHT22;5580;50.106;8.702;2022-11-20T07:28:00;3.50;99.90
11055;DHT22;5580;50.106;8.702;2022-11-20T07:30:27;3.70;99.90
11055;DHT22;5580;50.106;8.702;2022-11-20T07:32:53;3.70;99.90
11055;DHT22;5580;50.106;8.702;2022-11-20T07:35:19;3.70;99.90
11055;DHT22;5580;50.106;8.702;2022-11-20T07:37:45;3.80;99.90
11055;DHT22;5580;50.106;8.702;2022-11-20T07:40:15;3.90;99.90
11055;DHT22;5580;50.106;8.702;2022-11-20T07:42:50;3.90;99.90
11055;DHT22;5580;50.106;8.702;2022-11-20T07:45:16;3.90;99.90
11055;DHT22;5580;50.106;8.702;2022-11-20T07:47:42;4.00;99.90
11055;DHT22;5580;50.106;8.702;2022-11-20T07:50:08;4.00;99.90
11055;DHT22;5580;50.106;8.702;2022-11-20T07:52:34;3.90;99.90
11055;DHT22;5580;50.106;8.702;2022-11-20T07:54:59;4.00;99.90
11055;DHT22;5580;50.106;8.702;2022-11-20T07:57:25;4.00;99.90
11055;DHT22;5580;50.106;8.702;2022-11-20T07:59:50;4.00;99.90
11055;DHT22;5580;50.106;8.702;2022-11-20T08:02:16;4.10;99.90
11055;DHT22;5580;50.106;8.702;2022-11-20T08:04:41;4.10;99.90
11055;DHT22;5580;50.106;8.702;2022-11-20T08:07:07;4.10;99.90
11055;DHT22;5580;50.106;8.702;2022-11-20T08:09:32;4.20;99.90
11055;DHT22;5580;50.106;8.702;2022-11-20T08:11:58;4.20;99.90
11055;DHT22;5580;50.106;8.702;2022-11-20T08:14:42;4.30;99.90
11055;DHT22;5580;50.106;8.702;2022-11-20T08:17:08;4.30;99.90
11055;DHT22;5580;50.106;8.702;2022-11-20T08:19:34;4.30;99.90
11055;DHT22;5580;50.106;8.702;2022-11-20T08:21:59;4.30;99.90
11055;DHT22;5580;50.106;8.702;2022-11-20T08:24:25;4.30;99.90
11055;DHT22;5580;50.106;8.702;2022-11-20T08:26:51;4.30;99.90
11055;DHT22;5580;50.106;8.702;2022-11-20T08:29:17;4.40;99.90
11055;DHT22;5580;50.106;8.702;2022-11-20T08:31:43;4.30;99.90
11055;DHT22;5580;50.106;8.702;2022-11-20T08:34:09;4.30;99.90
11055;DHT22;5580;50.106;8.702;2022-11-20T08:36:35;4.40;99.90
11055;DHT22;5580;50.106;8.702;2022-11-20T08:39:00;4.40;99.90
11055;DHT22;5580;50.106;8.702;2022-11-20T08:41:26;4.40;99.90
11055;DHT22;5580;50.106;8.702;2022-11-20T08:46:17;4.50;99.90
11055;DHT22;5580;50.106;8.702;2022-11-20T08:48:44;4.50;99.90
11055;DHT22;5580;50.106;8.702;2022-11-20T08:51:10;4.50;99.90
11055;DHT22;5580;50.106;8.702;2022-11-20T08:53:36;4.50;99.90
11055;DHT22;5580;50.106;8.702;2022-11-20T08:56:02;4.50;99.90
11055;DHT22;5580;50.106;8.702;2022-11-20T08:58:28;4.50;99.90
11055;DHT22;5580;50.106;8.702;2022-11-20T09:00:53;4.60;99.90
11055;DHT22;5580;50.106;8.702;2022-11-20T09:03:19;4.60;99.90
11055;DHT22;5580;50.106;8.702;2022-11-20T09:05:45;4.60;99.90
11055;DHT22;5580;50.106;8.702;2022-11-20T09:08:11;4.60;99.90
11055;DHT22;5580;50.106;8.702;2022-11-20T09:10:36;4.60;99.90
11055;DHT22;5580;50.106;8.702;2022-11-20T09:13:05;4.60;99.90
11055;DHT22;5580;50.106;8.702;2022-11-20T09:15:30;4.60;99.90
11055;DHT22;5580;50.106;8.702;2022-11-20T09:17:58;4.70;99.90
11055;DHT22;5580;50.106;8.702;2022-11-20T09:20:25;4.70;99.90
11055;DHT22;5580;50.106;8.702;2022-11-20T09:22:51;4.70;99.90
11055;DHT22;5580;50.106;8.702;2022-11-20T09:25:17;4.80;99.90
11055;DHT22;5580;50.106;8.702;2022-11-20T09:27:42;4.90;99.90
11055;DHT22;5580;50.106;8.702;2022-11-20T09:30:09;4.90;99.90
11055;DHT22;5580;50.106;8.702;2022-11-20T09:32:35;4.90;99.90
11055;DHT22;5580;50.106;8.702;2022-11-20T09:35:01;5.00;99.90
11055;DHT22;5580;50.106;8.702;2022-11-20T09:37:27;5.00;99.90
11055;DHT22;5580;50.106;8.702;2022-11-20T09:39:53;5.00;99.90
11055;DHT22;5580;50.106;8.702;2022-11-20T09:55:45;5.10;99.90
11055;DHT22;5580;50.106;8.702;2022-11-20T09:58:35;5.10;99.90
11055;DHT22;5580;50.106;8.702;2022-11-20T10:01:12;5.20;99.90
11055;DHT22;5580;50.106;8.702;2022-11-20T10:06:13;5.20;99.90
11055;DHT22;5580;50.106;8.702;2022-11-20T10:08:45;5.20;99.90
11055;DHT22;5580;50.106;8.702;2022-11-20T10:16:48;5.20;99.90
11055;DHT22;5580;50.106;8.702;2022-11-20T10:24:43;5.30;99.90
11055;DHT22;5580;50.106;8.702;2022-11-20T10:30:24;5.30;99.90
11055;DHT22;5580;50.106;8.702;2022-11-20T10:33:03;5.30;99.90
11055;DHT22;5580;50.106;8.702;2022-11-20T10:35:44;5.30;99.90
11055;DHT22;5580;50.106;8.702;2022-11-20T10:38:23;5.30;99.90
11055;DHT22;5580;50.106;8.702;2022-11-20T10:40:54;5.40;99.90
11055;DHT22;5580;50.106;8.702;2022-11-20T10:43:42;5.30;99.90
11055;DHT22;5580;50.106;8.702;2022-11-20T10:46:17;5.30;99.90
11055;DHT22;5580;50.106;8.702;2022-11-20T10:48:44;5.30;99.90
11055;DHT22;5580;50.106;8.702;2022-11-20T10:51:37;5.30;99.90
11055;DHT22;5580;50.106;8.702;2022-11-20T10:56:34;5.40;99.90
11055;DHT22;5580;50.106;8.702;2022-11-20T11:01:48;5.60;99.90
11055;DHT22;5580;50.106;8.702;2022-11-20T11:04:38;5.60;99.90
11055;DHT22;5580;50.106;8.702;2022-11-20T11:09:39;5.60;99.90
11055;DHT22;5580;50.106;8.702;2022-11-20T11:12:10;5.70;99.90
11055;DHT22;5580;50.106;8.702;2022-11-20T11:14:50;5.70;99.90
11055;DHT22;5580;50.106;8.702;2022-11-20T11:17:32;5.70;99.90
11055;DHT22;5580;50.106;8.702;2022-11-20T11:22:31;5.70;99.90
11055;DHT22;5580;50.106;8.702;2022-11-20T11:24:56;5.70;99.90
11055;DHT22;5580;50.106;8.702;2022-11-20T11:27:22;5.70;99.90
11055;DHT22;5580;50.106;8.702;2022-11-20T11:29:48;5.70;99.90
11055;DHT22;5580;50.106;8.702;2022-11-20T11:32:14;5.80;99.90
11055;DHT22;5580;50.106;8.702;2022-11-20T11:34:40;5.80;99.90
11055;DHT22;5580;50.106;8.702;2022-11-20T11:37:20;5.80;99.90
11055;DHT22;5580;50.106;8.702;2022-11-20T11:39:49;5.80;99.90
11055;DHT22;5580;50.106;8.702;2022-11-20T11:42:17;5.80;99.90
11055;DHT22;5580;50.106;8.702;2022-11-20T11:44:45;5.80;99.90
11055;DHT22;5580;50.106;8.702;2022-11-20T11:47:36;5.90;99.90
11055;DHT22;5580;50.106;8.702;2022-11-20T11:50:18;5.90;99.90
11055;DHT22;5580;50.106;8.702;2022-11-20T11:53:13;5.90;99.90
11055;DHT22;5580;50.106;8.702;2022-11-20T11:55:52;5.90;99.90
11055;DHT22;5580;50.106;8.702;2022-11-20T11:58:41;6.00;99.90
11055;DHT22;5580;50.106;8.702;2022-11-20T12:03:53;6.00;99.90
11055;DHT22;5580;50.106;8.702;2022-11-20T12:06:20;6.00;99.90
11055;DHT22;5580;50.106;8.702;2022-11-20T12:08:55;6.10;99.90
11055;DHT22;5580;50.106;8.702;2022-11-20T12:14:26;6.20;99.90
11055;DHT22;5580;50.106;8.702;2022-11-20T12:16:54;6.20;99.90
11055;DHT22;5580;50.106;8.702;2022-11-20T12:19:21;6.20;99.90
11055;DHT22;5580;50.106;8.702;2022-11-20T12:22:07;6.20;99.90
11055;DHT22;5580;50.106;8.702;2022-11-20T12:24:59;6.20;99.90
11055;DHT22;5580;50.106;8.702;2022-11-20T12:30:23;6.30;99.90
11055;DHT22;5580;50.106;8.702;2022-11-20T12:36:16;6.20;99.90
11055;DHT22;5580;50.106;8.702;2022-11-20T12:39:15;6.20;99.90
11055;DHT22;5580;50.106;8.702;2022-11-20T12:53:11;6.30;99.90
11055;DHT22;5580;50.106;8.702;2022-11-20T12:55:59;6.30;99.90
11055;DHT22;5580;50.106;8.702;2022-11-20T13:01:30;6.30;99.90
11055;DHT22;5580;50.106;8.702;2022-11-20T13:07:13;6.20;99.90
11055;DHT22;5580;50.106;8.702;2022-11-20T13:09:46;6.20;99.90
11055;DHT22;5580;50.106;8.702;2022-11-20T13:12:44;6.20;99.90
11055;DHT22;5580;50.106;8.702;2022-11-20T13:18:00;6.20;99.90
11055;DHT22;5580;50.106;8.702;2022-11-20T13:20:27;6.20;99.90
11055;DHT22;5580;50.106;8.702;2022-11-20T13:22:54;6.30;99.90
11055;DHT22;5580;50.106;8.702;2022-11-20T13:25:27;6.30;99.90
11055;DHT22;5580;50.106;8.702;2022-11-20T13:27:54;6.30;99.90
11055;DHT22;5580;50.106;8.702;2022-11-20T13:30:23;6.20;99.90
11055;DHT22;5580;50.106;8.702;2022-11-20T13:33:06;6.20;99.90
11055;DHT22;5580;50.106;8.702;2022-11-20T13:35:35;6.20;99.90
11055;DHT22;5580;50.106;8.702;2022-11-20T13:38:04;6.20;99.90
11055;DHT22;5580;50.106;8.702;2022-11-20T13:40:31;6.20;99.90
11055;DHT22;5580;50.106;8.702;2022-11-20T13:45:39;6.20;99.90
11055;DHT22;5580;50.106;8.702;2022-11-20T13:48:21;6.20;99.90
11055;DHT22;5580;50.106;8.702;2022-11-20T13:51:04;6.20;99.90
11055;DHT22;5580;50.106;8.702;2022-11-20T13:53:49;6.20;99.90
11055;DHT22;5580;50.106;8.702;2022-11-20T13:56:56;6.20;99.90
11055;DHT22;5580;50.106;8.702;2022-11-20T14:02:16;6.20;99.90
11055;DHT22;5580;50.106;8.702;2022-11-20T14:04:47;6.20;99.90
11055;DHT22;5580;50.106;8.702;2022-11-20T14:07:14;6.20;99.90
11055;DHT22;5580;50.106;8.702;2022-11-20T14:09:50;6.20;99.90
11055;DHT22;5580;50.106;8.702;2022-11-20T14:12:18;6.30;99.90
11055;DHT22;5580;50.106;8.702;2022-11-20T14:14:52;6.30;99.90
11055;DHT22;5580;50.106;8.702;2022-11-20T14:19:51;6.30;99.90
11055;DHT22;5580;50.106;8.702;2022-11-20T14:22:22;6.30;99.90
11055;DHT22;5580;50.106;8.702;2022-11-20T14:25:00;6.30;99.90
11055;DHT22;5580;50.106;8.702;2022-11-20T14:27:26;6.30;99.90
11055;DHT22;5580;50.106;8.702;2022-11-20T14:29:52;6.30;99.90
11055;DHT22;5580;50.106;8.702;2022-11-20T14:32:19;6.30;99.90
11055;DHT22;5580;50.106;8.702;2022-11-20T14:34:47;6.30;99.90
11055;DHT22;5580;50.106;8.702;2022-11-20T14:37:20;6.30;99.90
11055;DHT22;5580;50.106;8.702;2022-11-20T14:39:52;6.20;99.90
11055;DHT22;5580;50.106;8.702;2022-11-20T14:42:24;6.20;99.90
11055;DHT22;5580;50.106;8.702;2022-11-20T14:44:51;6.20;99.90
11055;DHT22;5580;50.106;8.702;2022-11-20T14:47:23;6.20;99.90
11055;DHT22;5580;50.106;8.702;2022-11-20T14:49:51;6.30;99.90
11055;DHT22;5580;50.106;8.702;2022-11-20T14:52:23;6.30;99.90
11055;DHT22;5580;50.106;8.702;2022-11-20T14:57:32;6.20;99.90
11055;DHT22;5580;50.106;8.702;2022-11-20T15:02:43;6.20;99.90
11055;DHT22;5580;50.106;8.702;2022-11-20T15:05:09;6.20;99.90
11055;DHT22;5580;50.106;8.702;2022-11-20T15:07:37;6.20;99.90
11055;DHT22;5580;50.106;8.702;2022-11-20T15:10:06;6.30;99.90
11055;DHT22;5580;50.106;8.702;2022-11-20T15:12:34;6.30;99.90
11055;DHT22;5580;50.106;8.702;2022-11-20T15:15:02;6.30;99.90
11055;DHT22;5580;50.106;8.702;2022-11-20T15:17:29;6.30;99.90
11055;DHT22;5580;50.106;8.702;2022-11-20T15:19:55;6.40;99.90
11055;DHT22;5580;50.106;8.702;2022-11-20T15:22:21;6.40;99.90
11055;DHT22;5580;50.106;8.702;2022-11-20T15:24:47;6.40;99.90
11055;DHT22;5580;50.106;8.702;2022-11-20T15:27:12;6.40;99.90
11055;DHT22;5580;50.106;8.702;2022-11-20T15:29:38;6.40;99.90
11055;DHT22;5580;50.106;8.702;2022-11-20T15:32:04;6.50;99.90
11055;DHT22;5580;50.106;8.702;2022-11-20T15:34:29;6.40;99.90
11055;DHT22;5580;50.106;8.702;2022-11-20T15:36:55;6.50;99.90
11055;DHT22;5580;50.106;8.702;2022-11-20T15:39:21;6.50;99.90
11055;DHT22;5580;50.106;8.702;2022-11-20T15:41:46;6.40;99.90
11055;DHT22;5580;50.106;8.702;2022-11-20T15:44:12;6.50;99.90
11055;DHT22;5580;50.106;8.702;2022-11-20T15:46:40;6.40;99.90
11055;DHT22;5580;50.106;8.702;2022-11-20T15:49:13;6.50;99.90
11055;DHT22;5580;50.106;8.702;2022-11-20T15:51:41;6.40;99.90
11055;DHT22;5580;50.106;8.702;2022-11-20T15:54:20;6.50;99.90
11055;DHT22;5580;50.106;8.702;2022-11-20T15:56:47;6.50;99.90
11055;DHT22;5580;50.106;8.702;2022-11-20T15:59:13;6.50;99.90
11055;DHT22;5580;50.106;8.702;2022-11-20T16:01:42;6.50;99.90
11055;DHT22;5580;50.106;8.702;2022-11-20T16:04:12;6.50;99.90
11055;DHT22;5580;50.106;8.702;2022-11-20T16:06:38;6.50;99.90
11055;DHT22;5580;50.106;8.702;2022-11-20T16:09:04;6.50;99.90
11055;DHT22;5580;50.106;8.702;2022-11-20T16:11:29;6.60;99.90
11055;DHT22;5580;50.106;8.702;2022-11-20T16:13:55;6.50;99.90
11055;DHT22;5580;50.106;8.702;2022-11-20T16:16:39;6.50;99.90
11055;DHT22;5580;50.106;8.702;2022-11-20T16:19:10;6.50;99.90
11055;DHT22;5580;50.106;8.702;2022-11-20T16:21:35;6.50;99.90
11055;DHT22;5580;50.106;8.702;2022-11-20T16:24:04;6.50;99.90
11055;DHT22;5580;50.106;8.702;2022-11-20T16:26:31;6.50;99.90
11055;DHT22;5580;50.106;8.702;2022-11-20T16:28:58;6.50;99.90
11055;DHT22;5580;50.106;8.702;2022-11-20T16:31:24;6.50;99.90
11055;DHT22;5580;50.106;8.702;2022-11-20T16:33:54;6.60;99.90
11055;DHT22;5580;50.106;8.702;2022-11-20T16:36:22;6.60;99.90
11055;DHT22;5580;50.106;8.702;2022-11-20T16:38:52;6.60;99.90
11055;DHT22;5580;50.106;8.702;2022-11-20T16:41:18;6.60;99.90
11055;DHT22;5580;50.106;8.702;2022-11-20T16:43:46;6.50;99.90
11055;DHT22;5580;50.106;8.702;2022-11-20T16:46:13;6.50;99.90
11055;DHT22;5580;50.106;8.702;2022-11-20T16:48:39;6.50;99.90
11055;DHT22;5580;50.106;8.702;2022-11-20T16:51:08;6.50;99.90
11055;DHT22;5580;50.106;8.702;2022-11-20T16:53:33;6.50;99.90
11055;DHT22;5580;50.106;8.702;2022-11-20T16:56:20;6.50;99.90
11055;DHT22;5580;50.106;8.702;2022-11-20T16:58:47;6.50;99.90
11055;DHT22;5580;50.106;8.702;2022-11-20T17:01:15;6.50;99.90
11055;DHT22;5580;50.106;8.702;2022-11-20T17:03:43;6.50;99.90
11055;DHT22;5580;50.106;8.702;2022-11-20T17:06:17;6.60;99.90
11055;DHT22;5580;50.106;8.702;2022-11-20T17:08:44;6.60;99.90
11055;DHT22;5580;50.106;8.702;2022-11-20T17:11:12;6.60;99.90
11055;DHT22;5580;50.106;8.702;2022-11-20T17:13:38;6.60;99.90
11055;DHT22;5580;50.106;8.702;2022-11-20T17:16:12;6.60;99.90
11055;DHT22;5580;50.106;8.702;2022-11-20T17:18:38;6.60;99.90
11055;DHT22;5580;50.106;8.702;2022-11-20T17:21:04;6.60;99.90
11055;DHT22;5580;50.106;8.702;2022-11-20T17:23:31;6.50;99.90
11055;DHT22;5580;50.106;8.702;2022-11-20T17:28:33;6.50;99.90
11055;DHT22;5580;50.106;8.702;2022-11-20T17:31:00;6.50;99.90
11055;DHT22;5580;50.106;8.702;2022-11-20T17:33:27;6.50;99.90
11055;DHT22;5580;50.106;8.702;2022-11-20T17:35:52;6.60;99.90
11055;DHT22;5580;50.106;8.702;2022-11-20T17:38:18;6.60;99.90
11055;DHT22;5580;50.106;8.702;2022-11-20T17:40:43;6.60;99.90
11055;DHT22;5580;50.106;8.702;2022-11-20T17:43:10;6.60;99.90
11055;DHT22;5580;50.106;8.702;2022-11-20T17:45:36;6.70;99.90
11055;DHT22;5580;50.106;8.702;2022-11-20T17:48:02;6.80;99.90
11055;DHT22;5580;50.106;8.702;2022-11-20T17:50:28;6.70;99.90
11055;DHT22;5580;50.106;8.702;2022-11-20T17:52:53;6.80;99.90
11055;DHT22;5580;50.106;8.702;2022-11-20T17:55:19;6.80;99.90
11055;DHT22;5580;50.106;8.702;2022-11-20T17:57:44;6.80;99.90
11055;DHT22;5580;50.106;8.702;2022-11-20T18:00:21;6.80;99.90